Harle — ZCTV4 — position and weather

sailwx.info

Track history (hours):
 
Tides and Currents Weather Stations Pressure Air Temp Water Temp Dewpoint Dewpoint Depression Visibility Wind Speed Wind Dir Waves Ship Positions

Harle

Last reported at 2018-Jul-17 06:17 UTC. Time now 2018-Jul-20 15:51 UTC.
Position N 43°42' E 007°17'.

Length 45 m; draft 2.7 m.

Type: Pleasure craft. MMSI: 319323000.

Date/timePositionNaut miles runAvg speedWind from/ knotsBaromVisibWave heightAir tempDewpointWater temp
2018-Jul-17 06:17N 43°42' E 007°17'0 0.1
2018-Jul-17 05:47N 43°42' E 007°17'1 4.5
2018-Jul-17 05:30N 43°41' E 007°18'2 4.1
2018-Jul-17 05:00N 43°41' E 007°21'53 6.1
2018-Jul-16 20:15N 43°27' E 008°31'3 9.3
2018-Jul-16 19:58N 43°26' E 008°34'4 9.2
2018-Jul-16 19:30N 43°24' E 008°40'5 8.9
2018-Jul-16 18:58N 43°22' E 008°46'510.1
2018-Jul-16 18:30N 43°21' E 008°52'611.6
2018-Jul-16 17:59N 43°19' E 008°60'912.0
2018-Jul-16 17:13N 43°16' E 009°12'311.8
2018-Jul-16 16:59N 43°15' E 009°16'611.9
2018-Jul-16 16:30N 43°14' E 009°23'712.0
2018-Jul-16 15:55N 43°11' E 009°32'511.5
2018-Jul-16 15:30N 43°08' E 009°37'18212.1
2018-Jul-16 00:27N 40°19' E 011°10'912.0
2018-Jul-15 23:44N 40°12' E 011°14'511.9
2018-Jul-15 23:18N 40°07' E 011°17'311.8
2018-Jul-15 23:00N 40°04' E 011°19'611.8
2018-Jul-15 22:30N 39°58' E 011°22'1011.8
2018-Jul-15 21:38N 39°49' E 011°27'212.0
2018-Jul-15 21:29N 39°47' E 011°28'612.0
2018-Jul-15 20:58N 39°42' E 011°32'611.9
2018-Jul-15 20:30N 39°37' E 011°35'612.2
2018-Jul-15 20:00N 39°31' E 011°38'  
2018-Jul-08 09:22N 38°11' E 013°01'411.8
2018-Jul-08 09:00N 38°13' E 013°06'611.9
2018-Jul-08 08:30N 38°14' E 013°13'611.6
2018-Jul-08 08:00N 38°13' E 013°20'510.3
2018-Jul-08 07:30N 38°09' E 013°22'0 0.4
2018-Jul-08 06:59N 38°09' E 013°22'0 0.0
2018-Jul-08 06:29N 38°09' E 013°22'0 0.0
2018-Jul-08 05:59N 38°09' E 013°22'0 0.0
2018-Jul-08 05:29N 38°09' E 013°22'0 0.0
2018-Jul-08 04:59N 38°09' E 013°22'0 0.0
2018-Jul-08 04:29N 38°09' E 013°22'0 0.0
2018-Jul-08 03:59N 38°09' E 013°22'0 0.0
2018-Jul-08 03:29N 38°09' E 013°22'0 0.0
2018-Jul-08 02:59N 38°09' E 013°22'0 0.0
2018-Jul-08 02:29N 38°09' E 013°22'0 0.0
2018-Jul-08 01:59N 38°09' E 013°22'0 0.0
2018-Jul-08 01:29N 38°09' E 013°22'0 0.0
2018-Jul-08 00:59N 38°09' E 013°22'0 0.0
2018-Jul-08 00:29N 38°09' E 013°22'0 0.0
2018-Jul-07 23:59N 38°09' E 013°22'0 0.0
2018-Jul-07 23:29N 38°09' E 013°22'0 0.0
2018-Jul-07 22:59N 38°09' E 013°22'0 0.0
2018-Jul-07 22:29N 38°09' E 013°22'0 0.0
2018-Jul-07 21:59N 38°09' E 013°22'0 0.0
2018-Jul-07 21:29N 38°09' E 013°22'0 0.0
2018-Jul-07 20:59N 38°09' E 013°22'0 0.0
2018-Jul-07 20:29N 38°09' E 013°22'0 0.0
2018-Jul-07 19:59N 38°09' E 013°22'0 0.0
2018-Jul-07 19:29N 38°09' E 013°22'0 0.0
2018-Jul-07 18:59N 38°09' E 013°22'0 0.0
2018-Jul-07 18:08N 38°09' E 013°22'0 0.0
2018-Jul-07 17:47N 38°09' E 013°22'0 0.0
2018-Jul-07 17:29N 38°09' E 013°22'0 0.0
2018-Jul-07 16:59N 38°09' E 013°22'0 0.0
2018-Jul-07 16:29N 38°09' E 013°22'0 0.0
2018-Jul-07 15:59N 38°09' E 013°22'0 0.0
2018-Jul-07 15:29N 38°09' E 013°22'0 0.0
2018-Jul-07 14:59N 38°09' E 013°22'0 0.0
2018-Jul-07 14:29N 38°09' E 013°22'0 0.0
2018-Jul-07 13:59N 38°09' E 013°22'0 0.0
2018-Jul-07 13:29N 38°09' E 013°22'0 0.0
2018-Jul-07 12:59N 38°09' E 013°22'0 0.0
2018-Jul-07 12:29N 38°09' E 013°22'0 0.0
2018-Jul-07 11:59N 38°09' E 013°22'0 0.0
2018-Jul-07 11:29N 38°09' E 013°22'0 0.0
2018-Jul-07 10:50N 38°09' E 013°22'0 0.0
2018-Jul-07 10:26N 38°09' E 013°22'0 0.0
2018-Jul-07 09:59N 38°09' E 013°22'0 0.0
2018-Jul-07 09:28N 38°09' E 013°22'0 0.0
2018-Jul-07 08:58N 38°09' E 013°22'0 0.0
2018-Jul-07 08:26N 38°09' E 013°22'0 0.0
2018-Jul-07 07:55N 38°09' E 013°22'0 0.0
2018-Jul-07 07:25N 38°09' E 013°22'0 0.0
2018-Jul-07 06:59N 38°09' E 013°22'0 0.0
2018-Jul-07 06:29N 38°09' E 013°22'  
Track history (hours):
 
Tides and Currents Weather Stations Pressure Air Temp Water Temp Dewpoint Dewpoint Depression Visibility Wind Speed Wind Dir Waves Ship Positions

Harle

Last reported at 2018-Jul-17 06:17 UTC. Time now 2018-Jul-20 15:51 UTC.
Position N 43°42' E 007°17'.

Length 45 m; draft 2.7 m.

Type: Pleasure craft. MMSI: 319323000.

Date/timePositionNaut miles runAvg speedWind from/ knotsBaromVisibWave heightAir tempDewpointWater temp
2018-Jul-17 06:17N 43°42' E 007°17'0 0.1
2018-Jul-17 05:47N 43°42' E 007°17'1 4.5
2018-Jul-17 05:30N 43°41' E 007°18'2 4.1
2018-Jul-17 05:00N 43°41' E 007°21'53 6.1
2018-Jul-16 20:15N 43°27' E 008°31'3 9.3
2018-Jul-16 19:58N 43°26' E 008°34'4 9.2
2018-Jul-16 19:30N 43°24' E 008°40'5 8.9
2018-Jul-16 18:58N 43°22' E 008°46'510.1
2018-Jul-16 18:30N 43°21' E 008°52'611.6
2018-Jul-16 17:59N 43°19' E 008°60'912.0
2018-Jul-16 17:13N 43°16' E 009°12'311.8
2018-Jul-16 16:59N 43°15' E 009°16'611.9
2018-Jul-16 16:30N 43°14' E 009°23'712.0
2018-Jul-16 15:55N 43°11' E 009°32'511.5
2018-Jul-16 15:30N 43°08' E 009°37'18212.1
2018-Jul-16 00:27N 40°19' E 011°10'912.0
2018-Jul-15 23:44N 40°12' E 011°14'511.9
2018-Jul-15 23:18N 40°07' E 011°17'311.8
2018-Jul-15 23:00N 40°04' E 011°19'611.8
2018-Jul-15 22:30N 39°58' E 011°22'1011.8
2018-Jul-15 21:38N 39°49' E 011°27'212.0
2018-Jul-15 21:29N 39°47' E 011°28'612.0
2018-Jul-15 20:58N 39°42' E 011°32'611.9
2018-Jul-15 20:30N 39°37' E 011°35'612.2
2018-Jul-15 20:00N 39°31' E 011°38'  
2018-Jul-08 09:22N 38°11' E 013°01'411.8
2018-Jul-08 09:00N 38°13' E 013°06'611.9
2018-Jul-08 08:30N 38°14' E 013°13'611.6
2018-Jul-08 08:00N 38°13' E 013°20'510.3
2018-Jul-08 07:30N 38°09' E 013°22'0 0.4
2018-Jul-08 06:59N 38°09' E 013°22'0 0.0
2018-Jul-08 06:29N 38°09' E 013°22'0 0.0
2018-Jul-08 05:59N 38°09' E 013°22'0 0.0
2018-Jul-08 05:29N 38°09' E 013°22'0 0.0
2018-Jul-08 04:59N 38°09' E 013°22'0 0.0
2018-Jul-08 04:29N 38°09' E 013°22'0 0.0
2018-Jul-08 03:59N 38°09' E 013°22'0 0.0
2018-Jul-08 03:29N 38°09' E 013°22'0 0.0
2018-Jul-08 02:59N 38°09' E 013°22'0 0.0
2018-Jul-08 02:29N 38°09' E 013°22'0 0.0
2018-Jul-08 01:59N 38°09' E 013°22'0 0.0
2018-Jul-08 01:29N 38°09' E 013°22'0 0.0
2018-Jul-08 00:59N 38°09' E 013°22'0 0.0
2018-Jul-08 00:29N 38°09' E 013°22'0 0.0
2018-Jul-07 23:59N 38°09' E 013°22'0 0.0
2018-Jul-07 23:29N 38°09' E 013°22'0 0.0
2018-Jul-07 22:59N 38°09' E 013°22'0 0.0
2018-Jul-07 22:29N 38°09' E 013°22'0 0.0
2018-Jul-07 21:59N 38°09' E 013°22'0 0.0
2018-Jul-07 21:29N 38°09' E 013°22'0 0.0
2018-Jul-07 20:59N 38°09' E 013°22'0 0.0
2018-Jul-07 20:29N 38°09' E 013°22'0 0.0
2018-Jul-07 19:59N 38°09' E 013°22'0 0.0
2018-Jul-07 19:29N 38°09' E 013°22'0 0.0
2018-Jul-07 18:59N 38°09' E 013°22'0 0.0
2018-Jul-07 18:08N 38°09' E 013°22'0 0.0
2018-Jul-07 17:47N 38°09' E 013°22'0 0.0
2018-Jul-07 17:29N 38°09' E 013°22'0 0.0
2018-Jul-07 16:59N 38°09' E 013°22'0 0.0
2018-Jul-07 16:29N 38°09' E 013°22'0 0.0
2018-Jul-07 15:59N 38°09' E 013°22'0 0.0
2018-Jul-07 15:29N 38°09' E 013°22'0 0.0
2018-Jul-07 14:59N 38°09' E 013°22'0 0.0
2018-Jul-07 14:29N 38°09' E 013°22'0 0.0
2018-Jul-07 13:59N 38°09' E 013°22'0 0.0
2018-Jul-07 13:29N 38°09' E 013°22'0 0.0
2018-Jul-07 12:59N 38°09' E 013°22'0 0.0
2018-Jul-07 12:29N 38°09' E 013°22'0 0.0
2018-Jul-07 11:59N 38°09' E 013°22'0 0.0
2018-Jul-07 11:29N 38°09' E 013°22'0 0.0
2018-Jul-07 10:50N 38°09' E 013°22'0 0.0
2018-Jul-07 10:26N 38°09' E 013°22'0 0.0
2018-Jul-07 09:59N 38°09' E 013°22'0 0.0
2018-Jul-07 09:28N 38°09' E 013°22'0 0.0
2018-Jul-07 08:58N 38°09' E 013°22'0 0.0
2018-Jul-07 08:26N 38°09' E 013°22'0 0.0
2018-Jul-07 07:55N 38°09' E 013°22'0 0.0
2018-Jul-07 07:25N 38°09' E 013°22'0 0.0
2018-Jul-07 06:59N 38°09' E 013°22'0 0.0
2018-Jul-07 06:29N 38°09' E 013°22'  

Dump ship's entire track history